Terminal Aerodrome Forecast
Issued by NWS Sterling, VA

Current Version | Previous Version | Graphics & Text | Print | Product List | Glossary On
Versions: 1 2 3 4 5 6 7 8 9 10 11 12 13 14 15
000
FTUS41 KLWX 282322
TAFMRB
TAF
KMRB 282322Z 2900/2924 17007KT P6SM FEW045
     FM290200 17006KT P6SM FEW250
     FM290700 VRB03KT 3SM BR SCT250
     FM291300 VRB03KT P6SM BKN150
     FM292200 19005KT 6SM -SHRA BR OVC050=

USA.gov is the U.S. government's official web portal to all federal, state and local government web resources and services.